Track Слепенков Матвей

Time Latitude Longitude Accuracy (66% radius in meters) Altitude (meters) Speed (km/hour) Bearing (degrees) Battery (%) GPS flag
07:31:06 57.205783 60.114640 0 0 0 0 1 delete
07:31:02 57.205833 60.114513 0 0 0 0 1 delete
07:30:58 57.205906 60.114391 0 0 0 0 1 delete
07:30:54 57.205989 60.114290 0 0 0 0 1 delete
07:30:50 57.206065 60.114181 0 0 0 0 1 delete
07:30:46 57.206142 60.114076 0 0 0 0 1 delete
07:30:41 57.206259 60.114027 0 0 0 0 1 delete
07:30:38 57.206354 60.114103 0 0 0 0 1 delete
07:30:35 57.206437 60.114181 0 0 0 0 1 delete
07:30:32 57.206529 60.114279 0 0 0 0 1 delete
07:30:29 57.206629 60.114264 0 0 0 0 1 delete
07:30:26 57.206743 60.114261 0 0 0 0 1 delete
07:30:23 57.206854 60.114363 0 0 0 0 1 delete
07:30:20 57.206897 60.114572 0 0 0 0 1 delete
07:30:18 57.206877 60.114712 0 0 0 0 1 delete
07:30:16 57.206876 60.114861 0 0 0 0 1 delete
07:30:10 57.206936 60.114961 0 0 0 0 1 delete
07:30:06 57.207034 60.115007 0 0 0 0 1 delete
07:30:03 57.207136 60.115038 0 0 0 0 1 delete
07:29:59 57.207257 60.115006 0 0 0 0 1 delete
07:29:54 57.207353 60.115019 0 0 0 0 1 delete
07:29:50 57.207445 60.115062 0 0 0 0 1 delete
07:29:45 57.207541 60.115128 0 0 0 0 1 delete
07:29:40 57.207628 60.115186 0 0 0 0 1 delete
07:29:33 57.207708 60.115236 0 0 0 0 1 delete
07:29:27 57.207770 60.115160 0 0 0 0 1 delete
07:29:20 57.207809 60.115017 0 0 0 0 1 delete
07:29:15 57.207850 60.114880 0 0 0 0 1 delete
07:29:10 57.207852 60.114718 0 0 0 0 1 delete
07:29:06 57.207878 60.114559 0 0 0 0 1 delete
07:29:00 57.207951 60.114447 0 0 0 0 1 delete
07:28:56 57.208061 60.114463 0 0 0 0 1 delete
07:28:47 57.208140 60.114390 0 0 0 0 1 delete
07:28:35 57.208224 60.114323 0 0 0 0 1 delete
07:28:30 57.208312 60.114370 0 0 0 0 1 delete
07:28:27 57.208343 60.114618 0 0 0 0 1 delete
07:28:25 57.208333 60.114796 0 0 0 0 1 delete
07:28:22 57.208352 60.115001 0 0 0 0 1 delete
07:28:20 57.208391 60.115141 0 0 0 0 1 delete
07:28:17 57.208443 60.115317 0 0 0 0 1 delete
07:28:14 57.208502 60.115461 0 0 0 0 1 delete
07:28:11 57.208569 60.115591 0 0 0 0 1 delete
07:28:07 57.208651 60.115688 0 0 0 0 1 delete
07:28:03 57.208731 60.115775 0 0 0 0 1 delete
07:27:59 57.208814 60.115858 0 0 0 0 1 delete
07:27:54 57.208888 60.116011 0 0 0 0 1 delete
07:27:49 57.208965 60.116162 0 0 0 0 1 delete
07:27:40 57.209050 60.116266 0 0 0 0 1 delete
07:27:38 57.209034 60.116443 0 0 0 0 1 delete
07:27:36 57.209001 60.116636 0 0 0 0 1 delete